createdAt,value
2023-05-01T00:00:28.946Z,1400.00
2023-05-01T00:01:28.960Z,1393.00
2023-05-01T00:02:28.998Z,1395.00
2023-05-01T00:03:29.096Z,1397.00
2023-05-01T00:04:29.063Z,1397.00
2023-05-01T00:05:28.983Z,1400.00
2023-05-01T00:06:28.994Z,1397.00
2023-05-01T00:07:28.986Z,1401.00
2023-05-01T00:08:28.996Z,1397.00
2023-05-01T00:09:28.990Z,1398.00
2023-05-01T00:10:28.987Z,1400.00
2023-05-01T00:11:28.992Z,1399.00
2023-05-01T00:12:28.998Z,1402.00
2023-05-01T00:13:29.006Z,1404.00
2023-05-01T00:14:29.018Z,1394.00
2023-05-01T00:15:29.037Z,1387.00
2023-05-01T00:16:29.160Z,1390.00
2023-05-01T00:17:29.060Z,1380.00
2023-05-01T00:18:29.083Z,1390.00
2023-05-01T00:19:29.142Z,1388.00
2023-05-01T00:20:29.222Z,1393.00
2023-05-01T00:21:29.267Z,1391.00
2023-05-01T00:22:29.334Z,1391.00
2023-05-01T00:23:29.393Z,1390.00
2023-05-01T00:24:29.460Z,1394.00
2023-05-01T00:25:29.525Z,1387.00
2023-05-01T00:26:29.591Z,1384.00
2023-05-01T00:27:29.650Z,1378.00
2023-05-01T00:28:29.712Z,1379.00
2023-05-01T00:29:29.787Z,1364.00
2023-05-01T00:30:29.852Z,1379.00
2023-05-01T00:31:29.994Z,1372.00
2023-05-01T00:32:29.994Z,1382.00
2023-05-01T00:33:30.036Z,1375.00
2023-05-01T00:34:30.100Z,1373.00
2023-05-01T00:35:30.177Z,1375.00
2023-05-01T00:36:30.209Z,1367.00
2023-05-01T00:37:30.285Z,1370.00
2023-05-01T00:38:30.352Z,1381.00
2023-05-01T00:39:30.409Z,1369.00
2023-05-01T00:40:30.478Z,1364.00
2023-05-01T00:41:30.533Z,1365.00
2023-05-01T00:42:30.600Z,1374.00
2023-05-01T00:43:30.667Z,1367.00
2023-05-01T00:44:30.729Z,1363.00
2023-05-01T00:45:30.829Z,1365.00
2023-05-01T00:46:30.890Z,1376.00
2023-05-01T00:47:30.975Z,1370.00
2023-05-01T00:48:31.005Z,1359.00
2023-05-01T00:49:31.069Z,1358.00
2023-05-01T00:50:31.147Z,1373.00
2023-05-01T00:51:31.208Z,1355.00
2023-05-01T00:52:31.273Z,1368.00
2023-05-01T00:53:31.351Z,1360.00
2023-05-01T00:54:31.426Z,1360.00
2023-05-01T00:55:31.498Z,1368.00
2023-05-01T00:56:31.561Z,1356.00
2023-05-01T00:57:31.622Z,1350.00
2023-05-01T00:58:31.639Z,1351.00
2023-05-01T00:59:31.633Z,1351.00
2023-05-01T01:00:31.644Z,1356.00
2023-05-01T01:01:31.700Z,1360.00
2023-05-01T01:02:31.683Z,1350.00
2023-05-01T01:03:31.662Z,1352.00
2023-05-01T01:04:31.696Z,1355.00
2023-05-01T01:05:31.664Z,1360.00
2023-05-01T01:06:31.742Z,1360.00
2023-05-01T01:07:31.731Z,1354.00
2023-05-01T01:08:32.791Z,1339.00
2023-05-01T01:09:31.872Z,1344.00
2023-05-01T01:10:31.978Z,1352.00
2023-05-01T01:11:32.029Z,1349.00
2023-05-01T01:12:32.094Z,1349.00
2023-05-01T01:13:32.171Z,1344.00
2023-05-01T01:14:32.237Z,1355.00
2023-05-01T01:15:32.305Z,1343.00
2023-05-01T01:16:32.406Z,1342.00
2023-05-01T01:17:32.500Z,1332.00
2023-05-01T01:18:32.537Z,1328.00
2023-05-01T01:19:32.588Z,1338.00
2023-05-01T01:20:32.662Z,1332.00
2023-05-01T01:21:32.725Z,1323.00
2023-05-01T01:22:32.796Z,1330.00
2023-05-01T01:23:32.864Z,1334.00
2023-05-01T01:24:32.932Z,1325.00
2023-05-01T01:25:33.000Z,1329.00
2023-05-01T01:26:32.988Z,1330.00
2023-05-01T01:27:32.983Z,1328.00
2023-05-01T01:28:32.996Z,1328.00
2023-05-01T01:29:32.987Z,1334.00
2023-05-01T01:30:32.983Z,1337.00
2023-05-01T01:31:33.004Z,1325.00
2023-05-01T01:32:32.986Z,1329.00
2023-05-01T01:33:32.981Z,1320.00
2023-05-01T01:34:33.014Z,1321.00
2023-05-01T01:35:33.087Z,1322.00
2023-05-01T01:36:33.141Z,1322.00
2023-05-01T01:37:33.228Z,1316.00
2023-05-01T01:38:33.272Z,1309.00
2023-05-01T01:39:33.346Z,1307.00
2023-05-01T01:40:33.410Z,1317.00
2023-05-01T01:41:33.459Z,1317.00
2023-05-01T01:42:33.526Z,1306.00
2023-05-01T01:43:33.580Z,1308.00
2023-05-01T01:44:33.657Z,1300.00
2023-05-01T01:45:33.725Z,1310.00
2023-05-01T01:46:33.809Z,1312.00
2023-05-01T01:47:33.903Z,1306.00
2023-05-01T01:48:33.933Z,1311.00
2023-05-01T01:49:33.982Z,1301.00
2023-05-01T01:50:34.055Z,1307.00
2023-05-01T01:51:34.122Z,1298.00
2023-05-01T01:52:34.183Z,1302.00
2023-05-01T01:53:34.256Z,1292.00
2023-05-01T01:54:34.321Z,1291.00
2023-05-01T01:55:34.389Z,1280.00
2023-05-01T01:56:34.451Z,1293.00
2023-05-01T01:57:34.523Z,1296.00
2023-05-01T01:58:34.588Z,1291.00
2023-05-01T01:59:34.647Z,1293.00
2023-05-01T02:00:34.732Z,1289.00
2023-05-01T02:01:34.843Z,1283.00
2023-05-01T02:02:34.956Z,1283.00
2023-05-01T02:03:34.970Z,1276.00
2023-05-01T02:04:34.927Z,1277.00
2023-05-01T02:05:34.930Z,1280.00
2023-05-01T02:06:34.984Z,1279.00
2023-05-01T02:07:34.925Z,1268.00
2023-05-01T02:08:34.936Z,1278.00
2023-05-01T02:09:34.930Z,1276.00
2023-05-01T02:10:34.946Z,1263.00
2023-05-01T02:11:34.955Z,1284.00
2023-05-01T02:12:34.960Z,1279.00
2023-05-01T02:13:35.020Z,1266.00
2023-05-01T02:14:35.077Z,1249.00
2023-05-01T02:15:35.157Z,1253.00
2023-05-01T02:16:35.246Z,1235.00
2023-05-01T02:17:35.297Z,1260.00
2023-05-01T02:18:35.344Z,1240.00
2023-05-01T02:19:35.409Z,1230.00
2023-05-01T02:20:35.481Z,1235.00
2023-05-01T02:21:35.561Z,1253.00
2023-05-01T02:22:35.599Z,1245.00
2023-05-01T02:23:35.675Z,1233.00
2023-05-01T02:24:35.734Z,1241.00
2023-05-01T02:25:35.821Z,1240.00
2023-05-01T02:26:35.875Z,1227.00
2023-05-01T02:27:35.965Z,1241.00
2023-05-01T02:28:36.034Z,1220.00
2023-05-01T02:29:36.086Z,1233.00
2023-05-01T02:30:36.159Z,1222.00
2023-05-01T02:31:36.301Z,1220.00
2023-05-01T02:32:36.354Z,1216.00
2023-05-01T02:33:36.367Z,1238.00
2023-05-01T02:34:36.440Z,1231.00
2023-05-01T02:35:36.503Z,1219.00
2023-05-01T02:36:36.579Z,1223.00
2023-05-01T02:37:36.644Z,1222.00
2023-05-01T02:38:36.716Z,1212.00
2023-05-01T02:39:36.784Z,1217.00
2023-05-01T02:40:36.852Z,1217.00
2023-05-01T02:41:36.927Z,1235.00
2023-05-01T02:42:37.004Z,1214.00
2023-05-01T02:43:37.059Z,1225.00
2023-05-01T02:44:37.130Z,1212.00
2023-05-01T02:45:37.247Z,1209.00
2023-05-01T02:46:37.318Z,1219.00
2023-05-01T02:47:37.384Z,1204.00
2023-05-01T02:48:37.392Z,1235.00
2023-05-01T02:49:37.462Z,1203.00
2023-05-01T02:50:37.532Z,1207.00
2023-05-01T02:51:37.613Z,1208.00
2023-05-01T02:52:37.673Z,1217.00
2023-05-01T02:53:37.742Z,1214.00
2023-05-01T02:54:37.817Z,1206.00
2023-05-01T02:55:37.892Z,1206.00
2023-05-01T02:56:37.970Z,1203.00
2023-05-01T02:57:38.035Z,1201.00
2023-05-01T02:58:38.105Z,1194.00
2023-05-01T02:59:38.174Z,966.00
2023-05-01T03:00:38.249Z,818.00
2023-05-01T03:01:38.449Z,706.00
2023-05-01T03:02:38.447Z,649.00
2023-05-01T03:03:38.473Z,620.00
2023-05-01T03:04:38.651Z,572.00
2023-05-01T03:05:38.633Z,545.00
2023-05-01T03:06:38.821Z,498.00
2023-05-01T03:07:38.789Z,499.00
2023-05-01T03:08:38.842Z,500.00
2023-05-01T03:09:38.905Z,497.00
2023-05-01T03:10:38.962Z,500.00
2023-05-01T03:11:39.033Z,495.00
2023-05-01T03:12:39.052Z,500.00
2023-05-01T03:13:39.064Z,500.00
2023-05-01T03:14:39.093Z,497.00
2023-05-01T03:15:39.128Z,500.00
2023-05-01T03:16:39.180Z,501.00
2023-05-01T03:17:39.274Z,500.00
2023-05-01T03:18:39.219Z,495.00
2023-05-01T03:19:39.285Z,501.00
2023-05-01T03:20:39.409Z,505.00
2023-05-01T03:21:39.355Z,500.00
2023-05-01T03:22:39.390Z,500.00
2023-05-01T03:23:39.419Z,496.00
2023-05-01T03:24:39.458Z,498.00
2023-05-01T03:25:39.500Z,502.00
2023-05-01T03:26:39.574Z,500.00
2023-05-01T03:27:39.598Z,500.00
2023-05-01T03:28:39.656Z,503.00
2023-05-01T03:29:39.716Z,503.00
2023-05-01T03:30:39.774Z,505.00
2023-05-01T03:31:39.876Z,503.00
2023-05-01T03:32:39.949Z,502.00
2023-05-01T03:33:39.939Z,507.00
2023-05-01T03:34:40.004Z,508.00
2023-05-01T03:35:40.099Z,509.00
2023-05-01T03:36:40.136Z,505.00
2023-05-01T03:37:40.202Z,501.00
2023-05-01T03:38:40.278Z,507.00
2023-05-01T03:39:40.347Z,508.00
2023-05-01T03:40:40.401Z,509.00
2023-05-01T03:41:40.476Z,500.00
2023-05-01T03:42:40.497Z,498.00
2023-05-01T03:43:40.515Z,482.00
2023-05-01T03:44:40.561Z,480.00
2023-05-01T03:45:41.283Z,475.00
2023-05-01T03:46:40.707Z,483.00
2023-05-01T03:47:40.681Z,502.00
2023-05-01T03:48:40.665Z,507.00
2023-05-01T03:49:40.692Z,518.00
2023-05-01T03:50:40.725Z,510.00
2023-05-01T03:51:40.756Z,517.00
2023-05-01T03:52:40.783Z,519.00
2023-05-01T03:53:40.802Z,510.00
2023-05-01T03:54:40.842Z,511.00
2023-05-01T03:55:40.925Z,505.00
2023-05-01T03:56:41.010Z,510.00
2023-05-01T03:57:41.076Z,502.00
2023-05-01T03:58:41.165Z,509.00
2023-05-01T03:59:41.242Z,508.00
2023-05-01T04:00:41.315Z,500.00
2023-05-01T04:01:41.477Z,513.00
2023-05-01T04:02:41.580Z,507.00
2023-05-01T04:03:41.643Z,506.00
2023-05-01T04:04:41.705Z,511.00
2023-05-01T04:05:41.694Z,509.00
2023-05-01T04:06:41.783Z,508.00
2023-05-01T04:07:41.757Z,513.00
2023-05-01T04:08:41.791Z,510.00
2023-05-01T04:09:41.820Z,517.00
2023-05-01T04:10:41.865Z,520.00
2023-05-01T04:11:41.898Z,520.00
2023-05-01T04:12:41.940Z,517.00
2023-05-01T04:13:41.962Z,519.00
2023-05-01T04:14:42.002Z,521.00
2023-05-01T04:15:42.090Z,523.00
2023-05-01T04:16:42.176Z,513.00
2023-05-01T04:17:42.152Z,516.00
2023-05-01T04:18:42.213Z,529.00
2023-05-01T04:19:42.316Z,531.00
2023-05-01T04:20:42.431Z,535.00
2023-05-01T04:21:42.521Z,546.00
2023-05-01T04:22:42.610Z,544.00
2023-05-01T04:23:42.715Z,552.00
2023-05-01T04:24:42.820Z,550.00
2023-05-01T04:25:42.927Z,543.00
2023-05-01T04:26:43.049Z,545.00
2023-05-01T04:27:43.126Z,538.00
2023-05-01T04:28:43.166Z,538.00
2023-05-01T04:29:43.194Z,538.00
2023-05-01T04:30:43.236Z,538.00
2023-05-01T04:31:43.389Z,538.00
2023-05-01T04:32:43.338Z,538.00
2023-05-01T04:33:43.340Z,535.00
2023-05-01T04:34:43.377Z,532.00
2023-05-01T04:35:43.428Z,534.00
2023-05-01T04:36:43.469Z,524.00
2023-05-01T04:37:43.494Z,529.00
2023-05-01T04:38:43.559Z,530.00
2023-05-01T04:39:43.656Z,534.00
2023-05-01T04:40:43.776Z,539.00
2023-05-01T04:41:43.876Z,539.00
2023-05-01T04:42:43.994Z,548.00
2023-05-01T04:43:44.066Z,541.00
2023-05-01T04:44:44.158Z,552.00
2023-05-01T04:45:44.234Z,555.00
2023-05-01T04:46:44.387Z,565.00
2023-05-01T04:47:44.477Z,564.00
2023-05-01T04:48:44.545Z,554.00
2023-05-01T04:49:44.630Z,560.00
2023-05-01T04:50:44.733Z,565.00
2023-05-01T04:51:44.839Z,554.00
2023-05-01T04:52:44.925Z,553.00
2023-05-01T04:53:45.003Z,554.00
2023-05-01T04:54:45.090Z,550.00
2023-05-01T04:55:45.180Z,548.00
2023-05-01T04:56:45.504Z,545.00
2023-05-01T04:57:45.378Z,543.00
2023-05-01T04:58:45.476Z,541.00
2023-05-01T04:59:45.567Z,542.00
2023-05-01T05:00:45.707Z,535.00
2023-05-01T05:01:45.799Z,525.00
2023-05-01T05:02:45.947Z,526.00
2023-05-01T05:03:48.828Z,524.00
2023-05-01T05:04:45.975Z,529.00
2023-05-01T05:05:46.057Z,522.00
2023-05-01T05:06:46.192Z,520.00
2023-05-01T05:07:46.080Z,534.00
2023-05-01T05:08:46.115Z,519.00
2023-05-01T05:09:46.150Z,514.00
2023-05-01T05:10:46.188Z,517.00
2023-05-01T05:11:46.228Z,514.00
2023-05-01T05:12:46.256Z,514.00
2023-05-01T05:13:46.294Z,517.00
2023-05-01T05:14:46.333Z,519.00
2023-05-01T05:15:46.363Z,528.00
2023-05-01T05:16:46.415Z,524.00
2023-05-01T05:17:46.476Z,534.00
2023-05-01T05:18:46.484Z,523.00
2023-05-01T05:19:46.509Z,523.00
2023-05-01T05:20:46.548Z,525.00
2023-05-01T05:21:46.594Z,527.00
2023-05-01T05:22:46.613Z,516.00
2023-05-01T05:23:46.654Z,520.00
2023-05-01T05:24:46.696Z,520.00
2023-05-01T05:25:46.743Z,521.00
2023-05-01T05:26:46.775Z,514.00
2023-05-01T05:27:46.807Z,513.00
2023-05-01T05:28:46.847Z,511.00
2023-05-01T05:29:46.890Z,519.00
2023-05-01T05:30:46.925Z,519.00
2023-05-01T05:31:46.980Z,521.00
2023-05-01T05:32:46.986Z,518.00
2023-05-01T05:33:47.026Z,520.00
2023-05-01T05:34:47.055Z,518.00
2023-05-01T05:35:47.071Z,520.00
2023-05-01T05:36:47.107Z,519.00
2023-05-01T05:37:47.141Z,523.00
2023-05-01T05:38:47.173Z,528.00
2023-05-01T05:39:47.210Z,521.00
2023-05-01T05:40:47.243Z,528.00
2023-05-01T05:41:47.288Z,532.00
2023-05-01T05:42:47.329Z,524.00
2023-05-01T05:43:47.352Z,522.00
2023-05-01T05:44:47.370Z,517.00
2023-05-01T05:45:47.411Z,516.00
2023-05-01T05:46:47.445Z,517.00
2023-05-01T05:47:47.538Z,517.00
2023-05-01T05:48:47.600Z,514.00
2023-05-01T05:49:47.673Z,514.00
2023-05-01T05:50:47.754Z,515.00
2023-05-01T05:51:47.816Z,525.00
2023-05-01T05:52:47.852Z,516.00
2023-05-01T05:53:47.908Z,524.00
2023-05-01T05:54:47.961Z,523.00
2023-05-01T05:55:47.990Z,527.00
2023-05-01T05:56:48.034Z,527.00
2023-05-01T05:57:48.056Z,527.00
2023-05-01T05:58:48.096Z,528.00
2023-05-01T05:59:48.133Z,528.00
2023-05-01T06:00:48.181Z,533.00
2023-05-01T06:01:48.213Z,530.00
2023-05-01T06:02:48.337Z,531.00
2023-05-01T06:03:48.340Z,535.00
2023-05-01T06:04:48.316Z,532.00
2023-05-01T06:05:48.370Z,529.00
2023-05-01T06:06:48.496Z,522.00
2023-05-01T06:07:48.460Z,527.00
2023-05-01T06:08:48.484Z,522.00
2023-05-01T06:09:48.524Z,521.00
2023-05-01T06:10:48.563Z,525.00
2023-05-01T06:11:48.636Z,523.00
2023-05-01T06:12:49.666Z,525.00
2023-05-01T06:13:49.656Z,523.00
2023-05-01T06:14:48.683Z,517.00
2023-05-01T06:15:48.712Z,518.00
2023-05-01T06:16:48.752Z,517.00
2023-05-01T06:17:48.792Z,517.00
2023-05-01T06:18:48.817Z,518.00
2023-05-01T06:19:48.854Z,517.00
2023-05-01T06:20:48.891Z,517.00
2023-05-01T06:21:48.937Z,511.00
2023-05-01T06:22:48.964Z,505.00
2023-05-01T06:23:48.998Z,509.00
2023-05-01T06:24:49.032Z,509.00
2023-05-01T06:25:49.078Z,508.00
2023-05-01T06:26:49.171Z,504.00
2023-05-01T06:27:49.155Z,508.00
2023-05-01T06:28:49.206Z,510.00
2023-05-01T06:29:49.235Z,515.00
2023-05-01T06:30:49.280Z,512.00
2023-05-01T06:31:49.339Z,514.00
2023-05-01T06:32:49.384Z,514.00
2023-05-01T06:33:49.384Z,515.00
2023-05-01T06:34:49.412Z,518.00
2023-05-01T06:35:49.445Z,520.00
2023-05-01T06:36:49.497Z,517.00
2023-05-01T06:37:49.525Z,515.00
2023-05-01T06:38:49.571Z,520.00
2023-05-01T06:39:49.606Z,520.00
2023-05-01T06:40:49.653Z,521.00
2023-05-01T06:41:49.675Z,525.00
2023-05-01T06:42:49.743Z,524.00
2023-05-01T06:43:49.763Z,525.00
2023-05-01T06:44:49.779Z,527.00
2023-05-01T06:45:49.826Z,535.00
2023-05-01T06:46:49.917Z,531.00
2023-05-01T06:47:49.996Z,531.00
2023-05-01T06:48:49.929Z,538.00
2023-05-01T06:49:49.988Z,531.00
2023-05-01T06:50:50.025Z,534.00
2023-05-01T06:51:50.055Z,542.00
2023-05-01T06:52:50.098Z,547.00
2023-05-01T06:53:50.128Z,542.00
2023-05-01T06:54:50.169Z,550.00
2023-05-01T06:55:50.243Z,552.00
2023-05-01T06:56:50.373Z,550.00
2023-05-01T06:57:50.272Z,551.00
2023-05-01T06:58:50.344Z,556.00
2023-05-01T06:59:50.355Z,552.00
2023-05-01T07:00:50.590Z,551.00
2023-05-01T07:01:50.556Z,549.00
2023-05-01T07:02:50.647Z,549.00
2023-05-01T07:03:50.618Z,543.00
2023-05-01T07:04:50.661Z,544.00
2023-05-01T07:05:50.732Z,547.00
2023-05-01T07:06:50.837Z,545.00
2023-05-01T07:08:00.771Z,549.00
2023-05-01T07:08:51.872Z,549.00
2023-05-01T07:09:50.921Z,548.00
2023-05-01T07:10:50.916Z,549.00
2023-05-01T07:11:50.949Z,548.00
2023-05-01T07:12:50.987Z,542.00
2023-05-01T07:13:51.037Z,550.00
2023-05-01T07:14:51.053Z,547.00
2023-05-01T07:15:52.388Z,538.00
2023-05-01T07:16:51.192Z,543.00
2023-05-01T07:17:51.175Z,546.00
2023-05-01T07:18:51.164Z,544.00
2023-05-01T07:19:51.171Z,543.00
2023-05-01T07:20:51.214Z,540.00
2023-05-01T07:21:51.235Z,537.00
2023-05-01T07:22:51.268Z,538.00
2023-05-01T07:23:51.277Z,538.00
2023-05-01T07:24:51.314Z,534.00
2023-05-01T07:25:51.346Z,525.00
2023-05-01T07:26:51.360Z,529.00
2023-05-01T07:27:51.392Z,527.00
2023-05-01T07:28:51.429Z,526.00
2023-05-01T07:29:51.455Z,533.00
2023-05-01T07:30:51.477Z,528.00
2023-05-01T07:31:51.526Z,523.00
2023-05-01T07:32:51.580Z,521.00
2023-05-01T07:33:52.972Z,517.00
2023-05-01T07:34:51.801Z,518.00
2023-05-01T07:35:51.881Z,531.00
2023-05-01T07:36:51.954Z,519.00
2023-05-01T07:37:52.042Z,526.00
2023-05-01T07:38:52.116Z,530.00
2023-05-01T07:39:52.191Z,529.00
2023-05-01T07:40:52.281Z,538.00
2023-05-01T07:41:52.363Z,544.00
2023-05-01T07:42:54.460Z,560.00
2023-05-01T07:43:52.599Z,557.00
2023-05-01T07:44:52.685Z,563.00
2023-05-01T07:45:52.766Z,560.00
2023-05-01T07:46:52.860Z,555.00
2023-05-01T07:47:52.975Z,551.00
2023-05-01T07:48:53.054Z,558.00
2023-05-01T07:49:53.180Z,549.00
2023-05-01T07:50:53.262Z,534.00
2023-05-01T07:51:53.340Z,509.00
2023-05-01T07:52:53.441Z,500.00
2023-05-01T07:53:53.549Z,501.00
2023-05-01T07:54:53.642Z,504.00
2023-05-01T07:55:53.659Z,504.00
2023-05-01T07:56:53.686Z,505.00
2023-05-01T07:57:53.729Z,500.00
2023-05-01T07:58:53.749Z,492.00
2023-05-01T07:59:53.963Z,478.00
2023-05-01T08:00:53.803Z,503.00
2023-05-01T08:01:53.903Z,503.00
2023-05-01T08:02:54.040Z,505.00
2023-05-01T08:03:54.005Z,501.00
2023-05-01T08:04:54.086Z,500.00
2023-05-01T08:05:54.009Z,507.00
2023-05-01T08:06:54.214Z,499.00
2023-05-01T08:07:54.085Z,491.00
2023-05-01T08:08:54.113Z,468.00
2023-05-01T08:09:54.302Z,461.00
2023-05-01T08:10:54.178Z,435.00
2023-05-01T08:11:54.201Z,422.00
2023-05-01T08:12:54.232Z,475.00
2023-05-01T08:13:54.249Z,500.00
2023-05-01T08:14:54.286Z,500.00
2023-05-01T08:15:54.318Z,500.00
2023-05-01T08:16:54.328Z,500.00
2023-05-01T08:17:54.382Z,500.00
2023-05-01T08:18:54.364Z,500.00
2023-05-01T08:19:54.548Z,488.00
2023-05-01T08:20:54.400Z,480.00
2023-05-01T08:21:54.437Z,467.00
2023-05-01T08:22:54.463Z,449.00
2023-05-01T08:23:54.488Z,478.00
2023-05-01T08:24:54.515Z,500.00
2023-05-01T08:25:54.532Z,500.00
2023-05-01T08:26:54.555Z,500.00
2023-05-01T08:27:54.632Z,500.00
2023-05-01T08:28:54.695Z,502.00
2023-05-01T08:29:54.974Z,503.00
2023-05-01T08:30:54.811Z,500.00
2023-05-01T08:31:54.898Z,500.00
2023-05-01T08:32:54.925Z,501.00
2023-05-01T08:33:54.981Z,508.00
2023-05-01T08:34:55.056Z,506.00
2023-05-01T08:35:55.118Z,506.00
2023-05-01T08:36:55.194Z,500.00
2023-05-01T08:37:55.309Z,503.00
2023-05-01T08:38:55.394Z,500.00
2023-05-01T08:39:55.697Z,503.00
2023-05-01T08:40:55.595Z,500.00
2023-05-01T08:41:55.713Z,503.00
2023-05-01T08:42:55.788Z,502.00
2023-05-01T08:43:55.879Z,507.00
2023-05-01T08:44:55.948Z,501.00
2023-05-01T08:45:56.005Z,500.00
2023-05-01T08:46:56.041Z,493.00
2023-05-01T08:47:56.100Z,497.00
2023-05-01T08:48:56.090Z,500.00
2023-05-01T08:49:56.515Z,483.00
2023-05-01T08:50:56.167Z,481.00
2023-05-01T08:51:56.177Z,500.00
2023-05-01T08:52:56.234Z,501.00
2023-05-01T08:53:56.246Z,506.00
2023-05-01T08:54:56.264Z,504.00
2023-05-01T08:55:56.301Z,501.00
2023-05-01T08:56:56.309Z,506.00
2023-05-01T08:57:56.348Z,504.00
2023-05-01T08:58:56.374Z,505.00
2023-05-01T08:59:56.594Z,506.00
2023-05-01T09:00:56.423Z,517.00
2023-05-01T09:01:56.520Z,558.00
2023-05-01T09:02:56.521Z,508.00
2023-05-01T09:03:56.617Z,525.00
2023-05-01T09:04:56.535Z,571.00
2023-05-01T09:05:56.682Z,649.00
2023-05-01T09:06:56.604Z,943.00
2023-05-01T09:07:56.640Z,1071.00
2023-05-01T09:08:56.649Z,1190.00
2023-05-01T09:09:56.924Z,1289.00
2023-05-01T09:10:56.676Z,1375.00
2023-05-01T09:11:56.706Z,1453.00
2023-05-01T09:12:56.781Z,1492.00
2023-05-01T09:13:56.878Z,1563.00
2023-05-01T09:14:56.952Z,1623.00
2023-05-01T09:15:57.048Z,1677.00
2023-05-01T09:16:57.147Z,1725.00
2023-05-01T09:17:57.219Z,1779.00
2023-05-01T09:18:57.209Z,1819.00
2023-05-01T09:19:57.509Z,1880.00
2023-05-01T09:20:57.335Z,1943.00
2023-05-01T09:21:57.410Z,1967.00
2023-05-01T09:22:57.454Z,2015.00
2023-05-01T09:23:57.513Z,2057.00
2023-05-01T09:24:57.558Z,2102.00
2023-05-01T09:25:57.617Z,2141.00
2023-05-01T09:26:57.681Z,2168.00
2023-05-01T09:27:57.722Z,2228.00
2023-05-01T09:28:57.769Z,2282.00
2023-05-01T09:29:58.034Z,2315.00
2023-05-01T09:30:57.842Z,2317.00
2023-05-01T09:31:57.913Z,2325.00
2023-05-01T09:32:57.909Z,2352.00
2023-05-01T09:33:57.919Z,2401.00
2023-05-01T09:34:57.916Z,2485.00
2023-05-01T09:35:57.937Z,2544.00
2023-05-01T09:36:57.943Z,2576.00
2023-05-01T09:37:57.956Z,2608.00
2023-05-01T09:38:58.007Z,2627.00
2023-05-01T09:39:58.247Z,2625.00
2023-05-01T09:40:58.021Z,2667.00
2023-05-01T09:41:58.017Z,2693.00
2023-05-01T09:42:58.059Z,2722.00
2023-05-01T09:43:58.062Z,2747.00
2023-05-01T09:44:58.213Z,2790.00
2023-05-01T09:45:58.152Z,2792.00
2023-05-01T09:46:58.118Z,2856.00
2023-05-01T09:47:58.163Z,2864.00
2023-05-01T09:48:58.157Z,2887.00
2023-05-01T09:49:58.449Z,2906.00
2023-05-01T09:50:58.206Z,2933.00
2023-05-01T09:51:58.243Z,2974.00
2023-05-01T09:52:58.311Z,2982.00
2023-05-01T09:53:58.332Z,2985.00
2023-05-01T09:54:58.371Z,3022.00
2023-05-01T09:55:58.381Z,3042.00
2023-05-01T09:56:58.412Z,3043.00
2023-05-01T09:57:58.423Z,3048.00
2023-05-01T09:58:58.455Z,3062.00
2023-05-01T09:59:58.564Z,3087.00
2023-05-01T10:00:58.526Z,3128.00
2023-05-01T10:01:58.632Z,3147.00
2023-05-01T10:02:58.611Z,3178.00
2023-05-01T10:03:58.630Z,3186.00
2023-05-01T10:04:58.572Z,3188.00
2023-05-01T10:05:58.612Z,3193.00
2023-05-01T10:06:58.594Z,3208.00
2023-05-01T10:07:58.603Z,3235.00
2023-05-01T10:08:58.600Z,3280.00
2023-05-01T10:10:01.287Z,3278.00
2023-05-01T10:10:58.625Z,3279.00
2023-05-01T10:11:58.646Z,3283.00
2023-05-01T10:12:58.663Z,3297.00
2023-05-01T10:13:58.692Z,3316.00
2023-05-01T10:14:59.583Z,3344.00
2023-05-01T10:15:58.714Z,3363.00
2023-05-01T10:16:58.778Z,3368.00
2023-05-01T10:17:58.804Z,3377.00
2023-05-01T10:18:58.765Z,3393.00
2023-05-01T10:19:59.091Z,3393.00
2023-05-01T10:20:58.871Z,3406.00
2023-05-01T10:21:58.812Z,3420.00
2023-05-01T10:22:58.830Z,3399.00
2023-05-01T10:23:58.830Z,3401.00
2023-05-01T10:24:58.835Z,3407.00
2023-05-01T10:26:00.720Z,3418.00
2023-05-01T10:26:58.885Z,3434.00
2023-05-01T10:27:58.888Z,3460.00
2023-05-01T10:28:58.887Z,3402.00
2023-05-01T10:29:59.193Z,3411.00
2023-05-01T10:30:58.944Z,3433.00
2023-05-01T10:31:59.090Z,3403.00
2023-05-01T10:32:59.009Z,3415.00
2023-05-01T10:33:58.948Z,3436.00
2023-05-01T10:34:59.040Z,3470.00
2023-05-01T10:35:58.985Z,3535.00
2023-05-01T10:36:58.984Z,3526.00
2023-05-01T10:37:59.031Z,3531.00
2023-05-01T10:38:59.000Z,3528.00
2023-05-01T10:39:59.017Z,3526.00
2023-05-01T10:40:59.054Z,3532.00
2023-05-01T10:41:59.064Z,3528.00
2023-05-01T10:42:59.072Z,3526.00
2023-05-01T10:43:59.067Z,3527.00
2023-05-01T10:44:59.104Z,3531.00
2023-05-01T10:45:59.143Z,3537.00
2023-05-01T10:46:59.204Z,3551.00
2023-05-01T10:47:59.229Z,3537.00
2023-05-01T10:48:59.150Z,3534.00
2023-05-01T10:49:59.156Z,3527.00
2023-05-01T10:50:59.180Z,3537.00
2023-05-01T10:51:59.183Z,3530.00
2023-05-01T10:52:59.199Z,3531.00
2023-05-01T10:53:59.210Z,3524.00
2023-05-01T10:54:59.217Z,3534.00
2023-05-01T10:55:59.245Z,3534.00
2023-05-01T10:56:59.257Z,3527.00
2023-05-01T10:57:59.279Z,3526.00
2023-05-01T10:58:59.296Z,3538.00
2023-05-01T10:59:59.301Z,3531.00
2023-05-01T11:00:59.324Z,3534.00
2023-05-01T11:01:59.409Z,3528.00
2023-05-01T11:02:59.372Z,3527.00
2023-05-01T11:03:59.342Z,3527.00
2023-05-01T11:04:59.615Z,3527.00
2023-05-01T11:05:59.527Z,3528.00
2023-05-01T11:06:59.529Z,3530.00
2023-05-01T11:07:59.397Z,3529.00
2023-05-01T11:08:59.417Z,3534.00
2023-05-01T11:09:59.421Z,3536.00
2023-05-01T11:10:59.452Z,3545.00
2023-05-01T11:11:59.469Z,3561.00
2023-05-01T11:12:59.492Z,3559.00
2023-05-01T11:13:59.498Z,3571.00
2023-05-01T11:14:59.593Z,3563.00
2023-05-01T11:15:59.525Z,3564.00
2023-05-01T11:16:59.528Z,3564.00
2023-05-01T11:17:59.626Z,3568.00
2023-05-01T11:18:59.558Z,3559.00
2023-05-01T11:19:59.573Z,3563.00
2023-05-01T11:20:59.579Z,3535.00
2023-05-01T11:21:59.589Z,3537.00
2023-05-01T11:22:59.601Z,3516.00
2023-05-01T11:23:59.614Z,3509.00
2023-05-01T11:24:59.862Z,3508.00
2023-05-01T11:25:59.646Z,3501.00
2023-05-01T11:26:59.666Z,3499.00
2023-05-01T11:27:59.744Z,3467.00
2023-05-01T11:28:59.744Z,3485.00
2023-05-01T11:29:59.829Z,3461.00
2023-05-01T11:30:59.857Z,3461.00
2023-05-01T11:31:59.931Z,3461.00
2023-05-01T11:32:59.927Z,3459.00
2023-05-01T11:33:59.891Z,3442.00
2023-05-01T11:35:00.072Z,3449.00
2023-05-01T11:35:59.909Z,3462.00
2023-05-01T11:36:59.932Z,3472.00
2023-05-01T11:37:59.928Z,3458.00
2023-05-01T11:39:00.033Z,3455.00
2023-05-01T11:40:00.124Z,3468.00
2023-05-01T11:41:00.130Z,3469.00
2023-05-01T11:42:00.158Z,3470.00
2023-05-01T11:43:00.115Z,3473.00
2023-05-01T11:44:00.174Z,3482.00
2023-05-01T11:45:00.138Z,3482.00
2023-05-01T11:46:00.255Z,3473.00
2023-05-01T11:47:00.160Z,3478.00
2023-05-01T11:48:02.852Z,3476.00
2023-05-01T11:49:00.182Z,3477.00
2023-05-01T11:50:00.216Z,3478.00
2023-05-01T11:51:00.203Z,3483.00
2023-05-01T11:52:00.232Z,3490.00
2023-05-01T11:53:00.249Z,3499.00
2023-05-01T11:54:00.245Z,3514.00
2023-05-01T11:55:00.449Z,3506.00
2023-05-01T11:56:00.284Z,3508.00
2023-05-01T11:57:00.315Z,3509.00
2023-05-01T11:58:00.316Z,3513.00
2023-05-01T11:59:00.424Z,3507.00
2023-05-01T12:00:00.468Z,3521.00
2023-05-01T12:01:00.545Z,3504.00
2023-05-01T12:02:00.646Z,3509.00
2023-05-01T12:03:00.835Z,3504.00
2023-05-01T12:04:00.863Z,3505.00
2023-05-01T12:05:00.900Z,3507.00
2023-05-01T12:06:00.756Z,3509.00
2023-05-01T12:07:00.776Z,3513.00
2023-05-01T12:08:00.748Z,3507.00
2023-05-01T12:09:00.761Z,3534.00
2023-05-01T12:10:00.756Z,3511.00
2023-05-01T12:11:00.753Z,3500.00
2023-05-01T12:12:00.758Z,3514.00
2023-05-01T12:13:00.829Z,3507.00
2023-05-01T12:14:00.895Z,3513.00
2023-05-01T12:15:00.995Z,3518.00
2023-05-01T12:16:01.032Z,3503.00
2023-05-01T12:17:01.144Z,3503.00